createdAt,value
2019-01-28T00:01:58.040Z,10.30
2019-01-28T00:04:25.435Z,10.30
2019-01-28T00:06:52.909Z,10.30
2019-01-28T00:09:20.324Z,10.40
2019-01-28T00:11:47.663Z,13.40
2019-01-28T00:14:14.965Z,11.90
2019-01-28T00:16:42.193Z,10.60
2019-01-28T00:19:09.560Z,10.20
2019-01-28T00:21:37.009Z,11.60
2019-01-28T00:24:04.337Z,11.00
2019-01-28T00:26:31.722Z,10.10
2019-01-28T00:28:59.095Z,11.00
2019-01-28T00:31:26.389Z,10.10
2019-01-28T00:33:53.810Z,10.00
2019-01-28T00:36:21.156Z,10.00
2019-01-28T00:38:49.566Z,9.90
2019-01-28T00:41:17.049Z,9.80
2019-01-28T00:43:44.387Z,9.80
2019-01-28T00:46:11.727Z,9.70
2019-01-28T00:48:39.036Z,9.60
2019-01-28T00:51:06.350Z,9.50
2019-01-28T00:53:33.704Z,9.50
2019-01-28T00:56:01.012Z,9.50
2019-01-28T00:58:28.388Z,9.40
2019-01-28T01:00:55.820Z,9.30
2019-01-28T01:03:23.182Z,9.30
2019-01-28T01:05:50.546Z,9.50
2019-01-28T01:08:17.857Z,9.20
2019-01-28T01:10:45.209Z,9.30
2019-01-28T01:13:12.644Z,11.00
2019-01-28T01:15:40.065Z,9.20
2019-01-28T01:18:07.395Z,9.10
2019-01-28T01:20:34.746Z,9.10
2019-01-28T01:23:02.068Z,10.60
2019-01-28T01:25:29.447Z,9.50
2019-01-28T01:27:56.742Z,9.10
2019-01-28T01:30:24.174Z,10.50
2019-01-28T01:32:51.516Z,9.10
2019-01-28T01:35:18.771Z,9.00
2019-01-28T01:37:46.149Z,9.00
2019-01-28T01:40:15.114Z,8.90
2019-01-28T01:42:42.562Z,9.00
2019-01-28T01:45:11.759Z,8.90
2019-01-28T01:47:39.125Z,8.90
2019-01-28T01:50:07.713Z,8.80
2019-01-28T01:52:35.130Z,8.80
2019-01-28T01:55:02.755Z,8.80
2019-01-28T01:57:30.161Z,10.20
2019-01-28T01:59:57.519Z,8.80
2019-01-28T02:02:24.992Z,8.80
2019-01-28T02:04:52.371Z,8.70
2019-01-28T02:07:19.747Z,8.70
2019-01-28T02:09:47.128Z,8.60
2019-01-28T02:12:14.519Z,8.60
2019-01-28T02:14:41.811Z,8.60
2019-01-28T02:17:09.233Z,8.50
2019-01-28T02:19:36.623Z,8.50
2019-01-28T02:22:03.949Z,8.50
2019-01-28T02:24:31.397Z,8.50
2019-01-28T02:26:58.775Z,8.50
2019-01-28T02:29:26.079Z,8.50
2019-01-28T02:31:53.417Z,8.50
2019-01-28T02:34:20.803Z,8.40
2019-01-28T02:36:48.101Z,8.40
2019-01-28T02:39:15.532Z,8.40
2019-01-28T02:41:42.969Z,8.40
2019-01-28T02:44:10.425Z,8.40
2019-01-28T02:46:37.836Z,8.40
2019-01-28T02:49:05.293Z,8.50
2019-01-28T02:51:32.624Z,8.40
2019-01-28T02:53:59.815Z,8.50
2019-01-28T02:56:27.213Z,8.50
2019-01-28T02:58:54.527Z,8.50
2019-01-28T03:01:21.789Z,8.50
2019-01-28T03:03:49.050Z,8.50
2019-01-28T03:08:43.969Z,8.50
2019-01-28T03:11:11.353Z,8.50
2019-01-28T03:16:05.943Z,8.50
2019-01-28T03:18:33.409Z,8.70
2019-01-28T03:21:00.834Z,8.50
2019-01-28T03:23:28.582Z,8.60
2019-01-28T03:28:23.182Z,8.60
2019-01-28T03:30:53.866Z,8.60
2019-01-28T03:35:49.059Z,8.50
2019-01-28T03:38:16.419Z,8.80
2019-01-28T03:40:43.845Z,8.50
2019-01-28T03:43:11.228Z,8.50
2019-01-28T03:45:38.667Z,8.50
2019-01-28T03:48:05.965Z,8.50
2019-01-28T03:50:33.420Z,8.50
2019-01-28T03:53:00.854Z,8.50
2019-01-28T03:55:28.220Z,8.80
2019-01-28T03:57:55.611Z,8.40
2019-01-28T04:00:23.813Z,8.40
2019-01-28T04:02:51.255Z,8.40
2019-01-28T04:05:18.771Z,8.40
2019-01-28T04:07:46.193Z,8.40
2019-01-28T04:10:16.866Z,8.40
2019-01-28T04:12:44.228Z,8.40
2019-01-28T04:15:12.095Z,8.40
2019-01-28T04:17:39.551Z,8.40
2019-01-28T04:20:08.887Z,8.40
2019-01-28T04:22:36.239Z,8.80
2019-01-28T04:25:04.102Z,8.40
2019-01-28T04:27:31.510Z,8.50
2019-01-28T04:29:58.861Z,8.50
2019-01-28T04:32:26.148Z,9.00
2019-01-28T04:34:53.655Z,8.50
2019-01-28T04:37:21.007Z,8.80
2019-01-28T04:39:48.398Z,8.60
2019-01-28T04:42:15.761Z,8.50
2019-01-28T04:44:43.202Z,8.60
2019-01-28T04:47:10.557Z,8.50
2019-01-28T04:49:37.970Z,8.60
2019-01-28T04:52:05.430Z,8.60
2019-01-28T04:54:32.839Z,8.70
2019-01-28T04:57:00.183Z,8.60
2019-01-28T04:59:27.512Z,8.60
2019-01-28T05:01:55.007Z,8.60
2019-01-28T05:04:22.561Z,8.90
2019-01-28T05:09:17.145Z,8.60
2019-01-28T05:11:44.486Z,8.60
2019-01-28T05:14:14.982Z,8.60
2019-01-28T05:16:42.381Z,8.60
2019-01-28T05:19:10.367Z,8.60
2019-01-28T05:21:37.877Z,8.60
2019-01-28T05:24:05.176Z,8.60
2019-01-28T05:26:32.759Z,8.60
2019-01-28T05:29:00.081Z,8.60
2019-01-28T05:31:27.461Z,8.60
2019-01-28T05:36:22.119Z,8.40
2019-01-28T05:38:49.475Z,8.50
2019-01-28T05:41:16.927Z,8.50
2019-01-28T05:43:44.237Z,8.50
2019-01-28T05:46:11.594Z,8.50
2019-01-28T05:48:38.878Z,8.90
2019-01-28T05:53:33.548Z,8.40
2019-01-28T05:56:00.808Z,8.40
2019-01-28T05:58:28.196Z,8.40
2019-01-28T06:00:55.498Z,8.40
2019-01-28T06:03:22.837Z,8.40
2019-01-28T06:05:50.242Z,8.40
2019-01-28T06:08:17.636Z,8.40
2019-01-28T06:10:49.848Z,5.50
2019-01-28T06:13:17.318Z,8.40
2019-01-28T06:18:12.061Z,8.40
2019-01-28T06:20:39.442Z,11.30
2019-01-28T06:23:06.678Z,8.50
2019-01-28T06:25:34.094Z,8.50
2019-01-28T06:28:01.494Z,8.50
2019-01-28T06:30:30.660Z,8.50
2019-01-28T06:32:58.066Z,8.60
2019-01-28T06:35:25.589Z,8.60
2019-01-28T06:37:52.993Z,8.60
2019-01-28T06:40:22.890Z,8.60
2019-01-28T06:42:50.053Z,8.60
2019-01-28T06:45:17.426Z,9.10
2019-01-28T06:47:46.849Z,9.20
2019-01-28T06:52:42.166Z,8.60
2019-01-28T06:55:09.518Z,8.60
2019-01-28T06:57:36.729Z,8.60
2019-01-28T07:00:07.390Z,8.60
2019-01-28T07:02:34.723Z,8.70
2019-01-28T07:05:02.118Z,8.70
2019-01-28T07:07:29.575Z,8.80
2019-01-28T07:09:56.974Z,8.70
2019-01-28T07:12:24.264Z,8.70
2019-01-28T07:14:51.764Z,9.50
2019-01-28T07:17:19.153Z,8.70
2019-01-28T07:19:46.771Z,8.70
2019-01-28T07:22:14.044Z,8.70
2019-01-28T07:24:41.367Z,8.70
2019-01-28T07:27:08.800Z,8.70
2019-01-28T07:29:37.024Z,8.70
2019-01-28T07:32:04.669Z,8.60
2019-01-28T07:34:31.919Z,8.70
2019-01-28T07:36:59.335Z,12.70
2019-01-28T07:39:26.705Z,8.70
2019-01-28T07:41:54.095Z,10.00
2019-01-28T07:44:21.443Z,8.70
2019-01-28T07:46:48.759Z,8.60
2019-01-28T07:49:16.001Z,8.60
2019-01-28T07:51:43.587Z,8.90
2019-01-28T07:54:13.695Z,8.80
2019-01-28T07:56:41.106Z,8.60
2019-01-28T07:59:08.548Z,8.60
2019-01-28T08:01:35.917Z,8.60
2019-01-28T08:04:03.607Z,8.70
2019-01-28T08:06:30.967Z,8.70
2019-01-28T08:08:58.355Z,8.70
2019-01-28T08:11:25.835Z,8.70
2019-01-28T08:13:53.181Z,12.30
2019-01-28T08:16:20.607Z,8.70
2019-01-28T08:18:47.926Z,8.60
2019-01-28T08:21:15.327Z,8.70
2019-01-28T08:23:42.653Z,8.70
2019-01-28T08:26:10.012Z,8.60
2019-01-28T08:28:37.339Z,8.60
2019-01-28T08:31:04.685Z,8.60
2019-01-28T08:33:32.087Z,8.60
2019-01-28T08:35:59.573Z,10.70
2019-01-28T08:38:26.853Z,8.70
2019-01-28T08:40:54.342Z,8.80
2019-01-28T08:43:21.788Z,8.70
2019-01-28T08:45:49.255Z,11.00
2019-01-28T08:50:45.855Z,8.70
2019-01-28T08:53:23.303Z,11.60
2019-01-28T08:55:50.639Z,8.70
2019-01-28T08:58:25.261Z,10.00
2019-01-28T09:00:52.587Z,8.70
2019-01-28T09:03:19.870Z,8.70
2019-01-28T09:05:47.218Z,8.70
2019-01-28T09:08:14.565Z,8.80
2019-01-28T09:10:44.268Z,8.80
2019-01-28T09:13:15.035Z,11.50
2019-01-28T09:15:43.490Z,8.80
2019-01-28T09:18:11.352Z,8.80
2019-01-28T09:20:38.771Z,10.00
2019-01-28T09:23:06.200Z,12.10
2019-01-28T09:25:33.666Z,8.90
2019-01-28T09:28:01.074Z,8.90
2019-01-28T09:30:30.340Z,10.50
2019-01-28T09:32:57.779Z,9.00
2019-01-28T09:35:25.674Z,10.50
2019-01-28T09:37:52.960Z,9.00
2019-01-28T09:40:22.278Z,12.30
2019-01-28T09:42:49.680Z,9.10
2019-01-28T09:45:21.030Z,13.20
2019-01-28T09:47:48.675Z,9.10
2019-01-28T09:50:16.292Z,9.10
2019-01-28T09:52:43.976Z,9.10
2019-01-28T09:55:11.333Z,9.20
2019-01-28T10:00:43.906Z,9.20
2019-01-28T10:03:11.470Z,9.20
2019-01-28T10:05:38.925Z,9.20
2019-01-28T10:08:07.134Z,9.20
2019-01-28T10:10:34.438Z,9.20
2019-01-28T10:13:01.866Z,9.20
2019-01-28T10:15:29.271Z,9.20
2019-01-28T10:17:56.536Z,9.10
2019-01-28T10:20:32.178Z,9.10
2019-01-28T10:22:59.598Z,9.10
2019-01-28T10:25:26.967Z,9.10
2019-01-28T10:27:54.233Z,9.10
2019-01-28T10:30:31.219Z,9.90
2019-01-28T10:32:58.673Z,9.10
2019-01-28T10:35:28.073Z,9.10
2019-01-28T10:37:55.438Z,9.10
2019-01-28T10:40:25.150Z,6.70
2019-01-28T10:42:52.543Z,9.20
2019-01-28T10:45:21.751Z,9.20
2019-01-28T10:47:49.086Z,9.30
2019-01-28T10:50:17.214Z,9.30
2019-01-28T10:52:44.670Z,10.50
2019-01-28T10:55:12.673Z,9.40
2019-01-28T10:57:39.987Z,9.70
2019-01-28T11:00:13.899Z,10.70
2019-01-28T11:02:41.277Z,9.80
2019-01-28T11:05:08.700Z,9.70
2019-01-28T11:07:36.105Z,9.70
2019-01-28T11:10:05.093Z,9.80
2019-01-28T11:12:32.628Z,9.80
2019-01-28T11:15:00.055Z,9.90
2019-01-28T11:17:27.473Z,10.00
2019-01-28T11:19:54.823Z,10.00
2019-01-28T11:22:22.264Z,10.20
2019-01-28T11:24:49.703Z,10.20
2019-01-28T11:27:17.117Z,10.30
2019-01-28T11:29:44.517Z,10.40
2019-01-28T11:32:11.958Z,10.40
2019-01-28T11:34:39.350Z,10.60
2019-01-28T11:39:35.107Z,10.90
2019-01-28T11:42:03.046Z,11.00
2019-01-28T11:44:30.634Z,11.10
2019-01-28T11:46:57.990Z,11.10
2019-01-28T11:49:25.491Z,11.30
2019-01-28T11:51:52.755Z,11.30
2019-01-28T11:54:20.121Z,13.10
2019-01-28T11:56:47.619Z,11.30
2019-01-28T11:59:15.269Z,11.30
2019-01-28T12:01:42.801Z,11.20
2019-01-28T12:04:10.202Z,11.10
2019-01-28T12:06:37.649Z,11.00
2019-01-28T12:09:08.464Z,11.00
2019-01-28T12:11:35.853Z,13.60
2019-01-28T12:14:04.083Z,10.70
2019-01-28T12:16:31.716Z,10.60
2019-01-28T12:18:59.124Z,10.50
2019-01-28T12:21:26.517Z,12.20
2019-01-28T12:23:53.862Z,10.40
2019-01-28T12:26:21.234Z,10.40
2019-01-28T12:28:49.505Z,10.40
2019-01-28T12:31:17.734Z,10.40
2019-01-28T12:33:48.486Z,11.20
2019-01-28T12:36:15.952Z,10.70
2019-01-28T12:38:43.650Z,10.90
2019-01-28T12:41:17.346Z,11.00
2019-01-28T12:43:40.528Z,11.00
2019-01-28T12:46:07.842Z,11.20
2019-01-28T12:48:35.434Z,11.20
2019-01-28T12:55:33.995Z,11.50
2019-01-28T12:58:01.592Z,11.50
2019-01-28T13:00:40.618Z,11.60
2019-01-28T13:03:10.141Z,11.80
2019-01-28T13:05:39.237Z,13.70
2019-01-28T13:08:06.674Z,11.80
2019-01-28T13:10:34.218Z,12.00
2019-01-28T13:13:01.643Z,12.00
2019-01-28T13:15:29.576Z,12.00
2019-01-28T13:17:57.314Z,12.00
2019-01-28T13:20:25.443Z,12.00
2019-01-28T13:22:52.807Z,15.40
2019-01-28T13:25:26.680Z,12.00
2019-01-28T13:27:54.013Z,11.90
2019-01-28T13:30:26.785Z,11.80
2019-01-28T13:32:55.913Z,11.70
2019-01-28T13:35:23.491Z,11.70
2019-01-28T13:37:54.398Z,11.60
2019-01-28T13:40:21.794Z,11.60
2019-01-28T13:42:49.205Z,11.50
2019-01-28T13:45:17.753Z,11.30
2019-01-28T13:47:48.287Z,11.20
2019-01-28T13:50:18.309Z,11.10
2019-01-28T13:52:48.481Z,8.80
2019-01-28T13:55:16.858Z,10.90
2019-01-28T13:57:45.513Z,10.90
2019-01-28T14:00:18.929Z,13.70
2019-01-28T14:02:46.402Z,10.60
2019-01-28T14:05:13.991Z,9.50
2019-01-28T14:07:41.485Z,10.60
2019-01-28T14:10:09.959Z,12.60
2019-01-28T14:12:37.416Z,10.50
2019-01-28T14:15:12.406Z,10.50
2019-01-28T14:17:39.975Z,10.50
2019-01-28T14:20:28.478Z,10.50
2019-01-28T14:22:56.037Z,10.50
2019-01-28T14:25:23.431Z,10.40
2019-01-28T14:27:50.773Z,10.40
2019-01-28T14:30:22.401Z,10.40
2019-01-28T14:32:49.822Z,10.40
2019-01-28T14:35:20.287Z,10.40
2019-01-28T14:37:47.603Z,10.40
2019-01-28T14:40:17.547Z,10.40
2019-01-28T14:42:45.013Z,10.30
2019-01-28T14:45:12.577Z,10.30
2019-01-28T14:47:40.093Z,10.20
2019-01-28T14:50:17.182Z,10.20
2019-01-28T14:52:44.993Z,10.10
2019-01-28T14:55:12.531Z,10.00
2019-01-28T14:57:40.031Z,10.00
2019-01-28T15:00:09.722Z,9.90
2019-01-28T15:02:37.289Z,9.80
2019-01-28T15:05:07.085Z,9.80
2019-01-28T15:07:34.703Z,9.70
2019-01-28T15:10:02.028Z,9.60
2019-01-28T15:12:29.444Z,9.50
2019-01-28T15:14:56.733Z,9.50
2019-01-28T15:17:24.209Z,9.40
2019-01-28T15:19:52.448Z,9.30
2019-01-28T15:22:19.856Z,9.20
2019-01-28T15:24:47.154Z,9.20
2019-01-28T15:27:14.543Z,9.10
2019-01-28T15:29:42.127Z,9.00
2019-01-28T15:32:09.588Z,9.00
2019-01-28T15:37:04.265Z,8.80
2019-01-28T15:39:31.758Z,8.80
2019-01-28T15:44:26.624Z,8.70
2019-01-28T15:49:21.473Z,8.70
2019-01-28T15:51:48.813Z,8.70
2019-01-28T15:56:43.616Z,8.60
2019-01-28T15:59:13.817Z,8.60
2019-01-28T16:01:41.238Z,8.60
2019-01-28T16:04:08.694Z,8.60
2019-01-28T16:09:07.113Z,8.50
2019-01-28T16:11:34.508Z,8.50
2019-01-28T16:14:01.849Z,8.50
2019-01-28T16:16:29.230Z,8.50
2019-01-28T16:18:56.534Z,8.50
2019-01-28T16:21:23.914Z,8.40
2019-01-28T16:26:18.633Z,8.30
2019-01-28T16:28:45.928Z,8.30
2019-01-28T16:31:13.371Z,8.30
2019-01-28T16:33:40.775Z,8.30
2019-01-28T16:36:08.301Z,8.20
2019-01-28T16:38:35.797Z,8.20
2019-01-28T16:41:07.435Z,8.20
2019-01-28T16:43:34.852Z,11.70
2019-01-28T16:46:02.438Z,8.10
2019-01-28T16:48:31.746Z,8.10
2019-01-28T16:50:59.193Z,8.10
2019-01-28T16:53:27.322Z,8.00
2019-01-28T16:56:14.229Z,8.00
2019-01-28T16:58:41.676Z,7.90
2019-01-28T17:03:37.385Z,7.80
2019-01-28T17:06:05.659Z,7.80
2019-01-28T17:08:33.221Z,7.70
2019-01-28T17:13:47.931Z,7.60
2019-01-28T17:16:15.395Z,7.50
2019-01-28T17:23:39.721Z,7.40
2019-01-28T17:26:07.259Z,7.40
2019-01-28T17:28:37.527Z,7.40
2019-01-28T17:31:05.935Z,7.30
2019-01-28T17:38:28.234Z,7.30
2019-01-28T17:40:55.721Z,7.40
2019-01-28T17:43:23.233Z,7.30
2019-01-28T17:45:50.886Z,7.40
2019-01-28T17:48:18.298Z,7.40
2019-01-28T17:50:46.014Z,7.40
2019-01-28T17:53:13.480Z,7.30
2019-01-28T17:55:41.217Z,7.30
2019-01-28T18:00:48.883Z,7.30
2019-01-28T18:03:16.755Z,7.20
2019-01-28T18:08:11.849Z,7.20
2019-01-28T18:10:39.486Z,7.10
2019-01-28T18:13:06.885Z,7.10
2019-01-28T18:18:15.107Z,7.00
2019-01-28T18:20:42.495Z,7.00
2019-01-28T18:23:17.024Z,7.00
2019-01-28T18:25:44.399Z,6.90
2019-01-28T18:28:11.830Z,6.90
2019-01-28T18:30:42.410Z,6.90
2019-01-28T18:33:09.742Z,6.90
2019-01-28T18:35:37.624Z,6.90
2019-01-28T18:38:05.247Z,6.90
2019-01-28T18:40:33.022Z,6.90
2019-01-28T18:45:27.645Z,7.00
2019-01-28T18:47:54.985Z,7.00
2019-01-28T18:50:22.748Z,7.10
2019-01-28T18:52:51.066Z,7.00
2019-01-28T18:55:18.636Z,7.10
2019-01-28T18:57:46.168Z,7.10
2019-01-28T19:00:19.180Z,7.20
2019-01-28T19:02:46.639Z,7.20
2019-01-28T19:05:26.520Z,7.20
2019-01-28T19:07:58.009Z,7.20
2019-01-28T19:10:42.900Z,7.20
2019-01-28T19:13:20.392Z,7.20
2019-01-28T19:16:06.050Z,7.20
2019-01-28T19:18:53.062Z,7.30
2019-01-28T19:21:26.168Z,7.30
2019-01-28T19:23:53.548Z,7.30
2019-01-28T19:26:21.049Z,7.30
2019-01-28T19:31:15.876Z,7.30
2019-01-28T19:36:10.781Z,7.40
2019-01-28T19:38:38.855Z,7.40
2019-01-28T19:41:06.197Z,7.40
2019-01-28T19:48:47.951Z,7.40
2019-01-28T19:51:16.037Z,7.40
2019-01-28T19:56:18.780Z,7.50
2019-01-28T20:01:13.800Z,7.40
2019-01-28T20:03:41.494Z,7.40
2019-01-28T20:06:09.011Z,7.50
2019-01-28T20:08:38.131Z,7.50
2019-01-28T20:13:33.061Z,7.50
2019-01-28T20:16:00.949Z,7.50
2019-01-28T20:18:28.934Z,7.50
2019-01-28T20:20:56.368Z,7.60
2019-01-28T20:25:55.298Z,7.60
2019-01-28T20:28:22.681Z,7.60
2019-01-28T20:30:50.374Z,7.60
2019-01-28T20:33:17.922Z,7.60
2019-01-28T20:35:45.339Z,7.60
2019-01-28T20:38:15.763Z,7.60
2019-01-28T20:43:09.437Z,7.70
2019-01-28T20:45:44.799Z,7.70
2019-01-28T20:55:29.014Z,7.80
2019-01-28T21:00:24.818Z,7.80
2019-01-28T21:02:52.756Z,7.80
2019-01-28T21:05:20.345Z,7.80
2019-01-28T21:07:47.883Z,7.80
2019-01-28T21:10:16.880Z,7.80
2019-01-28T21:15:13.123Z,7.90
2019-01-28T21:17:40.591Z,7.90
2019-01-28T21:20:12.188Z,7.90
2019-01-28T21:22:39.712Z,7.90
2019-01-28T21:25:11.092Z,7.90
2019-01-28T21:27:38.585Z,8.00
2019-01-28T21:35:02.147Z,8.00
2019-01-28T21:37:35.540Z,8.00
2019-01-28T21:40:04.941Z,8.00
2019-01-28T21:42:32.744Z,8.00
2019-01-28T21:45:00.274Z,8.00
2019-01-28T21:49:55.536Z,8.10
2019-01-28T21:54:50.196Z,8.10
2019-01-28T21:57:17.625Z,8.10
2019-01-28T21:59:45.126Z,8.10
2019-01-28T22:02:12.508Z,8.20
2019-01-28T22:04:41.965Z,8.20
2019-01-28T22:12:04.475Z,8.10
2019-01-28T22:17:02.730Z,7.80
2019-01-28T22:19:30.369Z,8.10
2019-01-28T22:21:59.178Z,8.10
2019-01-28T22:24:27.510Z,8.00
2019-01-28T22:27:06.761Z,8.00
2019-01-28T22:29:36.144Z,7.90
2019-01-28T22:32:04.340Z,7.90
2019-01-28T22:37:28.779Z,7.80
2019-01-28T22:42:36.848Z,7.80
2019-01-28T22:47:35.356Z,7.80
2019-01-28T22:50:04.278Z,7.70
2019-01-28T22:52:31.972Z,7.70
2019-01-28T22:54:59.314Z,7.70
2019-01-28T22:57:27.126Z,7.70
2019-01-28T22:59:54.663Z,7.60
2019-01-28T23:02:22.042Z,7.60
2019-01-28T23:09:53.078Z,7.60
2019-01-28T23:12:26.294Z,7.60
2019-01-28T23:14:54.116Z,7.60
2019-01-28T23:19:48.831Z,7.60
2019-01-28T23:27:11.634Z,7.60
2019-01-28T23:32:07.599Z,7.60
2019-01-28T23:34:35.549Z,7.60
2019-01-28T23:39:30.416Z,7.60
2019-01-28T23:41:57.709Z,7.60
2019-01-28T23:44:25.055Z,7.60
2019-01-28T23:46:52.347Z,7.60
2019-01-28T23:49:19.687Z,7.60
2019-01-28T23:54:18.518Z,7.60
2019-01-28T23:56:45.893Z,7.70
2019-01-28T23:59:13.513Z,7.60
